Time;durP1;ratioP1;P1;durP2;ratioP2;P2;SDS_P1;SDS_P2;PMS_P1;PMS_P2;Temp;Humidity;BMP_temperature;BMP_pressure;BME280_temperature;BME280_humidity;BME280_pressure;Samples;Min_cycle;Max_cycle;Signal;HPM_P1;HPM_P2
2021/03/31 00:01:19;;;;;;;70.55;14.82;;;;;;;;;;5066482;28;20040;-59
2021/03/31 00:03:45;;;;;;;46.63;14.48;;;;;;;;;;5067223;28;20509;-59
2021/03/31 00:06:12;;;;;;;56.80;14.95;;;;;;;;;;5065232;28;20048;-59
2021/03/31 00:08:38;;;;;;;57.77;14.23;;;;;;;;;;5063375;28;20293;-59
2021/03/31 00:11:05;;;;;;;55.38;13.98;;;;;;;;;;5067662;28;20094;-59
2021/03/31 00:13:31;;;;;;;56.70;15.48;;;;;;;;;;5067496;28;20417;-59
2021/03/31 00:15:58;;;;;;;50.88;14.25;;;;;;;;;;5066563;28;20056;-59
2021/03/31 00:18:24;;;;;;;60.03;15.23;;;;;;;;;;5066883;28;20044;-59
2021/03/31 00:20:51;;;;;;;55.70;14.25;;;;;;;;;;5067051;28;20058;-59
2021/03/31 00:23:20;;;;;;;61.72;14.43;;;;;;;;;;5067587;28;20048;-59
2021/03/31 00:25:46;;;;;;;49.38;14.18;;;;;;;;;;5065748;28;20049;-59
2021/03/31 00:28:13;;;;;;;53.05;12.95;;;;;;;;;;5066798;28;20053;-59
2021/03/31 00:30:40;;;;;;;52.38;13.65;;;;;;;;;;5065650;28;20051;-59
2021/03/31 00:33:07;;;;;;;50.95;12.63;;;;;;;;;;5063636;28;20041;-59
2021/03/31 00:35:34;;;;;;;81.70;16.27;;;;;;;;;;5065375;28;20132;-59
2021/03/31 00:38:00;;;;;;;55.97;14.30;;;;;;;;;;5062153;28;20061;-59
2021/03/31 00:40:28;;;;;;;44.30;12.82;;;;;;;;;;5066544;28;20497;-59
2021/03/31 00:42:54;;;;;;;;;;;;;;;;;;5064281;28;20122;-59
2021/03/31 00:45:21;;;;;;;47.78;11.95;;;;;;;;;;5065787;28;19929;-59
2021/03/31 00:47:47;;;;;;;51.03;12.65;;;;;;;;;;5066802;28;20064;-59
2021/03/31 00:50:15;;;;;;;44.72;11.90;;;;;;;;;;5065981;28;20099;-59
2021/03/31 00:52:43;;;;;;;51.17;13.50;;;;;;;;;;5065955;28;20045;-59
2021/03/31 00:55:11;;;;;;;37.45;12.13;;;;;;;;;;5064496;28;20040;-59
2021/03/31 00:57:38;;;;;;;46.67;11.93;;;;;;;;;;5065712;28;20488;-59
2021/03/31 01:00:05;;;;;;;50.35;12.07;;;;;;;;;;5063553;28;20063;-59
2021/03/31 01:02:32;;;;;;;39.03;11.52;;;;;;;;;;5064109;28;20048;-59
2021/03/31 01:04:58;;;;;;;44.38;11.30;;;;;;;;;;5063096;28;20078;-59
2021/03/31 01:07:25;;;;;;;42.53;11.77;;;;;;;;;;5064252;28;20041;-59
2021/03/31 01:09:53;;;;;;;36.53;11.20;;;;;;;;;;5062405;28;20302;-59
2021/03/31 01:12:25;;;;;;;50.20;11.93;;;;;;;;;;5065059;28;20121;-59
2021/03/31 01:15:12;;;;;;;40.75;11.65;;;;;;;;;;5066687;28;20069;-59
2021/03/31 01:17:42;;;;;;;37.35;11.15;;;;;;;;;;5066167;28;20508;-59
2021/03/31 01:20:32;;;;;;;49.45;11.43;;;;;;;;;;5065413;28;20118;-59
2021/03/31 01:23:13;;;;;;;42.42;11.25;;;;;;;;;;5063306;28;20045;-59
2021/03/31 01:25:44;;;;;;;42.15;11.43;;;;;;;;;;5066138;28;20499;-59
2021/03/31 01:28:19;;;;;;;35.60;11.25;;;;;;;;;;5063815;28;20052;-59
2021/03/31 01:30:46;;;;;;;39.17;11.35;;;;;;;;;;5061787;28;20488;-59
2021/03/31 01:33:50;;;;;;;36.97;11.27;;;;;;;;;;5062716;28;20073;-59
2021/03/31 01:36:22;;;;;;;39.45;10.95;;;;;;;;;;4988068;28;20042;-59
2021/03/31 01:38:52;;;;;;;37.07;11.23;;;;;;;;;;4988490;28;20043;-59
2021/03/31 01:41:19;;;;;;;45.00;11.38;;;;;;;;;;5029136;28;20037;-59
2021/03/31 01:43:48;;;;;;;30.55;9.05;;;;;;;;;;5062963;28;20626;-59
2021/03/31 01:46:15;;;;;;;43.70;12.38;;;;;;;;;;5064033;28;20069;-59
2021/03/31 01:48:42;;;;;;;54.10;13.18;;;;;;;;;;5064338;28;20079;-59
2021/03/31 01:51:10;;;;;;;38.53;12.18;;;;;;;;;;5067160;28;20832;-58
2021/03/31 01:53:37;;;;;;;37.47;11.90;;;;;;;;;;5045934;28;20048;-59
2021/03/31 01:56:04;;;;;;;40.55;11.77;;;;;;;;;;5061125;28;20052;-59
2021/03/31 01:58:31;;;;;;;41.53;11.27;;;;;;;;;;5063866;28;20044;-59
2021/03/31 02:00:57;;;;;;;49.63;12.10;;;;;;;;;;5063104;28;20283;-59
2021/03/31 02:03:24;;;;;;;57.75;12.77;;;;;;;;;;5060903;28;20467;-59
2021/03/31 02:05:54;;;;;;;43.38;11.93;;;;;;;;;;5065258;28;20048;-59
2021/03/31 02:08:21;;;;;;;44.50;12.02;;;;;;;;;;5065205;28;20040;-59
2021/03/31 02:10:49;;;;;;;47.67;12.63;;;;;;;;;;5063800;28;20139;-59
2021/03/31 02:13:16;;;;;;;46.65;14.13;;;;;;;;;;5064491;28;20135;-59
2021/03/31 02:15:42;;;;;;;49.30;12.83;;;;;;;;;;5064379;28;20068;-59
2021/03/31 02:18:10;;;;;;;55.95;11.73;;;;;;;;;;5060659;28;20055;-59
2021/03/31 02:20:36;;;;;;;39.45;12.02;;;;;;;;;;5064209;28;20090;-59
2021/03/31 02:23:04;;;;;;;50.63;13.07;;;;;;;;;;5059757;28;20048;-59
2021/03/31 02:25:31;;;;;;;32.90;10.75;;;;;;;;;;5063835;28;20385;-59
2021/03/31 02:27:57;;;;;;;39.67;11.45;;;;;;;;;;5061859;28;20053;-59
2021/03/31 02:30:25;;;;;;;36.60;11.63;;;;;;;;;;5063017;28;20151;-59
2021/03/31 02:32:54;;;;;;;43.40;11.13;;;;;;;;;;5062043;28;20067;-59
2021/03/31 02:35:22;;;;;;;49.20;12.25;;;;;;;;;;5062941;28;20064;-59
2021/03/31 02:37:50;;;;;;;40.67;10.70;;;;;;;;;;5062475;28;20049;-59
2021/03/31 02:40:17;;;;;;;56.05;12.82;;;;;;;;;;5063493;28;20546;-59
2021/03/31 02:42:44;;;;;;;36.22;10.73;;;;;;;;;;5061226;28;20079;-59
2021/03/31 02:45:13;;;;;;;33.90;11.15;;;;;;;;;;5062274;28;20527;-59
2021/03/31 02:47:41;;;;;;;36.35;12.90;;;;;;;;;;5062619;28;20412;-59
2021/03/31 02:50:08;;;;;;;39.35;12.52;;;;;;;;;;5064194;28;20064;-59
2021/03/31 02:52:34;;;;;;;33.53;11.77;;;;;;;;;;5061630;28;20040;-59
2021/03/31 02:55:02;;;;;;;42.58;11.85;;;;;;;;;;5059924;28;20295;-59
2021/03/31 02:57:34;;;;;;;40.40;12.38;;;;;;;;;;5060917;28;20072;-59
2021/03/31 03:00:03;;;;;;;51.88;13.00;;;;;;;;;;5064161;28;20052;-59
2021/03/31 03:02:30;;;;;;;42.67;13.38;;;;;;;;;;5062115;28;20044;-59
2021/03/31 03:04:56;;;;;;;45.67;13.65;;;;;;;;;;5063470;28;20044;-59
2021/03/31 03:07:23;;;;;;;42.22;13.48;;;;;;;;;;5063502;28;20504;-59
2021/03/31 03:09:49;;;;;;;55.13;13.57;;;;;;;;;;5062798;28;20098;-59
2021/03/31 03:12:16;;;;;;;38.42;13.38;;;;;;;;;;5062843;28;20064;-59
2021/03/31 03:14:44;;;;;;;40.78;12.25;;;;;;;;;;5065407;28;20044;-59
2021/03/31 03:17:10;;;;;;;44.67;13.10;;;;;;;;;;5063022;28;20044;-59
2021/03/31 03:19:37;;;;;;;37.70;12.32;;;;;;;;;;5062632;28;20516;-59
2021/03/31 03:22:04;;;;;;;44.50;12.83;;;;;;;;;;5061300;28;20041;-59
2021/03/31 03:24:32;;;;;;;45.15;12.50;;;;;;;;;;5062919;28;20432;-59
2021/03/31 03:26:59;;;;;;;49.70;15.48;;;;;;;;;;5060165;28;20488;-59
2021/03/31 03:29:25;;;;;;;38.22;13.30;;;;;;;;;;5060885;28;20110;-59
2021/03/31 03:31:52;;;;;;;43.55;13.48;;;;;;;;;;5061235;28;20056;-59
2021/03/31 03:34:18;;;;;;;30.77;10.87;;;;;;;;;;5062653;28;20060;-59
2021/03/31 03:36:45;;;;;;;44.08;14.23;;;;;;;;;;5060579;28;20335;-59
2021/03/31 03:39:12;;;;;;;53.23;15.17;;;;;;;;;;5063407;28;20041;-59
2021/03/31 03:41:38;;;;;;;49.27;14.77;;;;;;;;;;5061952;28;20059;-59
2021/03/31 03:44:04;;;;;;;51.88;14.68;;;;;;;;;;5062474;28;20094;-59
2021/03/31 03:46:32;;;;;;;44.63;14.63;;;;;;;;;;5063719;28;20103;-59
2021/03/31 03:49:02;;;;;;;39.72;11.40;;;;;;;;;;5061423;28;20497;-59
2021/03/31 03:51:29;;;;;;;42.35;13.90;;;;;;;;;;5061324;28;20496;-59
2021/03/31 03:53:56;;;;;;;56.22;17.08;;;;;;;;;;5063216;28;20071;-59
2021/03/31 03:56:22;;;;;;;48.80;13.98;;;;;;;;;;5061040;28;20052;-59
2021/03/31 03:58:49;;;;;;;53.00;15.53;;;;;;;;;;5060652;28;20048;-59
2021/03/31 04:01:15;;;;;;;55.60;15.60;;;;;;;;;;5038358;28;20409;-59
2021/03/31 04:03:41;;;;;;;42.05;14.75;;;;;;;;;;5057303;28;20055;-59
2021/03/31 04:06:08;;;;;;;50.70;13.38;;;;;;;;;;5061059;28;20149;-59
2021/03/31 04:08:35;;;;;;;49.45;14.82;;;;;;;;;;5062650;28;20052;-59
2021/03/31 04:11:02;;;;;;;42.35;14.82;;;;;;;;;;5062539;28;20067;-59
2021/03/31 04:13:29;;;;;;;43.45;12.45;;;;;;;;;;5062528;28;20049;-59
2021/03/31 04:16:07;;;;;;;54.88;14.68;;;;;;;;;;5062651;28;20067;-59
2021/03/31 04:18:34;;;;;;;48.85;15.18;;;;;;;;;;5062033;28;20129;-59
2021/03/31 04:21:01;;;;;;;;;;;;;;;;;;5062742;28;20036;-59
2021/03/31 04:23:27;;;;;;;50.75;13.80;;;;;;;;;;5059136;28;19921;-59
2021/03/31 04:25:55;;;;;;;45.85;14.10;;;;;;;;;;5063707;28;20178;-59
2021/03/31 04:28:21;;;;;;;43.08;15.57;;;;;;;;;;5059343;28;20805;-59
2021/03/31 04:30:48;;;;;;;44.80;14.05;;;;;;;;;;5061672;28;20048;-58
2021/03/31 04:33:15;;;;;;;54.35;15.20;;;;;;;;;;5061503;28;20049;-59
2021/03/31 04:35:41;;;;;;;61.20;15.63;;;;;;;;;;5061575;28;20145;-59
2021/03/31 04:38:09;;;;;;;55.65;16.52;;;;;;;;;;5059306;28;20290;-59
2021/03/31 04:40:48;;;;;;;47.92;15.35;;;;;;;;;;5061478;28;20067;-59
2021/03/31 04:43:14;;;;;;;46.83;14.25;;;;;;;;;;5059274;28;20127;-59
2021/03/31 04:45:40;;;;;;;49.05;15.27;;;;;;;;;;5061439;28;20122;-59
2021/03/31 04:48:07;;;;;;;42.85;13.05;;;;;;;;;;5061697;28;20439;-59
2021/03/31 04:50:33;;;;;;;58.00;15.38;;;;;;;;;;5062922;28;20045;-58
2021/03/31 04:52:59;;;;;;;52.50;14.18;;;;;;;;;;5063559;28;20052;-59
2021/03/31 04:55:26;;;;;;;;;;;;;;;;;;5067545;28;20052;-58
2021/03/31 04:57:53;;;;;;;41.60;14.00;;;;;;;;;;5065771;28;20376;-59
2021/03/31 05:00:20;;;;;;;46.75;15.30;;;;;;;;;;5063549;28;20400;-59
2021/03/31 05:02:46;;;;;;;39.90;13.15;;;;;;;;;;5061263;28;20040;-59
2021/03/31 05:05:12;;;;;;;48.35;14.70;;;;;;;;;;5064325;28;20200;-59
2021/03/31 05:07:38;;;;;;;58.55;16.67;;;;;;;;;;5063808;28;20051;-59
2021/03/31 05:10:05;;;;;;;53.75;16.10;;;;;;;;;;5063717;28;20078;-59
2021/03/31 05:12:31;;;;;;;56.60;15.05;;;;;;;;;;5060609;28;20059;-59
2021/03/31 05:14:57;;;;;;;52.83;14.15;;;;;;;;;;5064579;28;20508;-59
2021/03/31 05:17:24;;;;;;;55.80;14.05;;;;;;;;;;5065667;28;20078;-59
2021/03/31 05:19:50;;;;;;;55.83;14.20;;;;;;;;;;5045823;28;20049;-59
2021/03/31 05:22:16;;;;;;;55.25;16.33;;;;;;;;;;5064899;28;20516;-59
2021/03/31 05:24:42;;;;;;;71.28;16.77;;;;;;;;;;5065183;28;20041;-59
2021/03/31 05:27:08;;;;;;;53.95;14.93;;;;;;;;;;5064542;28;20579;-59
2021/03/31 05:29:35;;;;;;;60.15;15.45;;;;;;;;;;5064875;28;20047;-59
2021/03/31 05:32:02;;;;;;;46.47;13.90;;;;;;;;;;5063327;28;20676;-59
2021/03/31 05:34:28;;;;;;;57.83;15.23;;;;;;;;;;5063943;28;20068;-58
2021/03/31 05:36:54;;;;;;;47.25;15.18;;;;;;;;;;5062556;28;20053;-59
2021/03/31 05:39:21;;;;;;;45.47;14.40;;;;;;;;;;5063454;28;20070;-59
2021/03/31 05:41:47;;;;;;;41.40;12.88;;;;;;;;;;5059851;28;20169;-59
2021/03/31 05:44:14;;;;;;;49.20;14.75;;;;;;;;;;5065726;28;20051;-59
2021/03/31 05:46:41;;;;;;;46.35;14.40;;;;;;;;;;5065488;28;20048;-60
2021/03/31 05:49:08;;;;;;;40.10;15.02;;;;;;;;;;5064916;28;20048;-59
2021/03/31 05:51:34;;;;;;;48.73;15.70;;;;;;;;;;5063738;28;20407;-59
2021/03/31 05:54:01;;;;;;;47.92;14.68;;;;;;;;;;5065574;28;20398;-59
2021/03/31 05:56:32;;;;;;;53.45;14.60;;;;;;;;;;5062335;28;20032;-59
2021/03/31 05:59:01;;;;;;;50.47;14.13;;;;;;;;;;5062922;28;20076;-59
2021/03/31 06:01:27;;;;;;;48.83;14.63;;;;;;;;;;5064452;28;20050;-59
2021/03/31 06:03:55;;;;;;;41.97;13.30;;;;;;;;;;5062895;28;20551;-59
2021/03/31 06:06:23;;;;;;;45.55;15.13;;;;;;;;;;5063768;28;20217;-59
2021/03/31 06:08:49;;;;;;;45.20;14.73;;;;;;;;;;5061909;28;20048;-59
2021/03/31 06:11:18;;;;;;;43.77;13.93;;;;;;;;;;5064433;28;20400;-59
2021/03/31 06:13:55;;;;;;;42.13;15.93;;;;;;;;;;5063602;28;20040;-59
2021/03/31 06:16:28;;;;;;;41.65;14.40;;;;;;;;;;5064696;28;20138;-59
2021/03/31 06:18:54;;;;;;;44.00;14.65;;;;;;;;;;5064584;28;20149;-59
2021/03/31 06:21:21;;;;;;;40.55;13.65;;;;;;;;;;5063520;28;20451;-59
2021/03/31 06:23:51;;;;;;;46.92;15.60;;;;;;;;;;5062855;28;20049;-59
2021/03/31 06:26:29;;;;;;;44.95;15.75;;;;;;;;;;5062486;28;20040;-59
2021/03/31 06:29:03;;;;;;;49.17;15.48;;;;;;;;;;5049515;28;20041;-59
2021/03/31 06:31:44;;;;;;;48.00;15.70;;;;;;;;;;5048393;28;20052;-59
2021/03/31 06:34:11;;;;;;;40.92;15.40;;;;;;;;;;5049488;28;20400;-59
2021/03/31 06:36:41;;;;;;;36.97;13.70;;;;;;;;;;5047585;28;20046;-59
2021/03/31 06:39:23;;;;;;;41.05;15.90;;;;;;;;;;5048636;28;20056;-59
2021/03/31 06:41:53;;;;;;;41.80;14.75;;;;;;;;;;5046518;28;20399;-59
2021/03/31 06:44:30;;;;;;;46.28;15.77;;;;;;;;;;5047972;28;20568;-59
2021/03/31 06:47:05;;;;;;;40.55;14.75;;;;;;;;;;5046401;28;20480;-59
2021/03/31 06:49:32;;;;;;;38.97;14.40;;;;;;;;;;5046476;28;20049;-59
2021/03/31 06:52:02;;;;;;;45.30;15.32;;;;;;;;;;5046728;28;20049;-59
2021/03/31 06:54:29;;;;;;;32.72;13.85;;;;;;;;;;5047913;28;20090;-59
2021/03/31 06:56:56;;;;;;;32.37;12.93;;;;;;;;;;5048532;28;20056;-59
2021/03/31 06:59:29;;;;;;;33.90;13.70;;;;;;;;;;5049674;28;20694;-59
2021/03/31 07:01:56;;;;;;;35.65;12.40;;;;;;;;;;5045862;28;20041;-59
2021/03/31 07:04:23;;;;;;;;;;;;;;;;;;5047740;28;20049;-59
2021/03/31 07:06:59;;;;;;;33.28;13.65;;;;;;;;;;5046283;28;19924;-59
2021/03/31 07:09:26;;;;;;;35.28;13.13;;;;;;;;;;5045819;28;20048;-59
2021/03/31 07:11:53;;;;;;;37.88;13.27;;;;;;;;;;5047798;28;20057;-59
2021/03/31 07:14:20;;;;;;;33.55;12.43;;;;;;;;;;5047488;28;20041;-59
2021/03/31 07:16:47;;;;;;;33.63;13.30;;;;;;;;;;5049054;28;20077;-59
2021/03/31 07:19:14;;;;;;;32.17;12.60;;;;;;;;;;5047183;28;20075;-59
2021/03/31 07:22:00;;;;;;;29.55;11.88;;;;;;;;;;5048856;28;20094;-59
2021/03/31 07:24:27;;;;;;;44.20;14.50;;;;;;;;;;5048741;28;20051;-59
2021/03/31 07:26:54;;;;;;;35.45;13.38;;;;;;;;;;5049426;28;20041;-59
2021/03/31 07:29:24;;;;;;;35.70;13.07;;;;;;;;;;5061913;28;20048;-59
2021/03/31 07:31:51;;;;;;;33.30;13.70;;;;;;;;;;5062255;28;20373;-59
2021/03/31 07:34:27;;;;;;;39.00;13.65;;;;;;;;;;5060085;28;20037;-59
2021/03/31 07:36:55;;;;;;;36.75;14.20;;;;;;;;;;5062045;28;20502;-59
2021/03/31 07:39:26;;;;;;;32.67;12.68;;;;;;;;;;5062168;28;20049;-59
2021/03/31 07:41:53;;;;;;;36.60;11.98;;;;;;;;;;5061143;28;20061;-59
2021/03/31 07:44:22;;;;;;;31.02;12.15;;;;;;;;;;5060793;28;20043;-59
2021/03/31 07:46:49;;;;;;;39.53;13.18;;;;;;;;;;5061181;28;20052;-59
2021/03/31 07:49:16;;;;;;;28.90;11.95;;;;;;;;;;5063821;28;20033;-59
2021/03/31 07:51:59;;;;;;;35.65;13.38;;;;;;;;;;5062791;28;20122;-59
2021/03/31 07:54:26;;;;;;;36.35;12.57;;;;;;;;;;5060647;28;20061;-59
2021/03/31 07:56:55;;;;;;;35.90;11.65;;;;;;;;;;5060404;28;20087;-59
2021/03/31 07:59:21;;;;;;;36.50;12.57;;;;;;;;;;5060615;28;20077;-59
2021/03/31 08:01:49;;;;;;;35.47;13.02;;;;;;;;;;5060329;28;20388;-59
2021/03/31 08:04:15;;;;;;;;;;;;;;;;;;5062698;28;20056;-59
2021/03/31 08:06:42;;;;;;;29.23;12.13;;;;;;;;;;5063789;28;19962;-59
2021/03/31 08:09:19;;;;;;;34.92;12.32;;;;;;;;;;5042726;28;20526;-59
2021/03/31 08:12:05;;;;;;;26.80;11.02;;;;;;;;;;5059435;28;20110;-59
2021/03/31 08:14:52;;;;;;;37.50;12.75;;;;;;;;;;5061341;28;20040;-59
2021/03/31 08:17:31;;;;;;;28.52;11.88;;;;;;;;;;5065205;28;20056;-59
2021/03/31 08:19:58;;;;;;;28.98;11.30;;;;;;;;;;5066849;28;20044;-59
2021/03/31 08:22:25;;;;;;;30.93;11.53;;;;;;;;;;5067924;28;20045;-59
2021/03/31 08:24:52;;;;;;;28.27;11.40;;;;;;;;;;5064134;28;20278;-59
2021/03/31 08:27:19;;;;;;;;;;;;;;;;;;5066034;28;20064;-59
2021/03/31 08:29:52;;;;;;;29.58;11.52;;;;;;;;;;5065441;28;19928;-59
2021/03/31 08:32:19;;;;;;;32.22;10.60;;;;;;;;;;5065403;28;20075;-59
2021/03/31 08:34:45;;;;;;;;;;;;;;;;;;5067786;28;20558;-59
2021/03/31 08:37:20;;;;;;;32.20;11.55;;;;;;;;;;5065552;28;20354;-59
2021/03/31 08:39:46;;;;;;;27.05;11.32;;;;;;;;;;5063955;28;20052;-59
2021/03/31 08:42:13;;;;;;;37.05;11.55;;;;;;;;;;5065854;28;20040;-59
2021/03/31 08:44:43;;;;;;;24.75;11.65;;;;;;;;;;5066535;28;20049;-59
2021/03/31 08:47:13;;;;;;;29.23;11.70;;;;;;;;;;5066556;28;20468;-59
2021/03/31 08:49:41;;;;;;;28.77;11.27;;;;;;;;;;5064294;28;20079;-59
2021/03/31 08:52:08;;;;;;;22.77;10.60;;;;;;;;;;5065492;28;20064;-59
2021/03/31 08:54:38;;;;;;;26.17;11.55;;;;;;;;;;5067881;28;20074;-59
2021/03/31 08:57:06;;;;;;;28.38;11.70;;;;;;;;;;5066542;28;20120;-59
2021/03/31 08:59:39;;;;;;;27.38;11.38;;;;;;;;;;5065762;28;20072;-59
2021/03/31 09:02:07;;;;;;;23.98;11.10;;;;;;;;;;5067232;28;20057;-59
2021/03/31 09:04:56;;;;;;;31.13;10.73;;;;;;;;;;5065952;28;20147;-59
2021/03/31 09:07:22;;;;;;;23.40;10.38;;;;;;;;;;5063738;28;20512;-59
2021/03/31 09:09:49;;;;;;;21.77;10.40;;;;;;;;;;5064907;28;20044;-59
2021/03/31 09:12:16;;;;;;;31.42;10.93;;;;;;;;;;5066040;28;20033;-59
2021/03/31 09:14:44;;;;;;;29.63;10.52;;;;;;;;;;5062424;28;20055;-59
2021/03/31 09:17:11;;;;;;;21.35;10.35;;;;;;;;;;5063474;28;20123;-60
2021/03/31 09:19:39;;;;;;;26.33;11.63;;;;;;;;;;5064275;28;20103;-59
2021/03/31 09:22:05;;;;;;;;;;;;;;;;;;5063739;28;20053;-59
2021/03/31 09:24:32;;;;;;;23.90;10.00;;;;;;;;;;5066103;28;19924;-59
2021/03/31 09:26:58;;;;;;;26.38;10.90;;;;;;;;;;5062534;28;20064;-59
2021/03/31 09:29:25;;;;;;;28.27;10.93;;;;;;;;;;5064741;28;20049;-59
2021/03/31 09:31:52;;;;;;;29.88;12.13;;;;;;;;;;5063577;28;20118;-59
2021/03/31 09:34:19;;;;;;;25.10;10.82;;;;;;;;;;5065469;28;20041;-59
2021/03/31 09:36:56;;;;;;;26.52;11.07;;;;;;;;;;5062069;28;20058;-59
2021/03/31 09:39:38;;;;;;;32.07;11.13;;;;;;;;;;5063725;28;20048;-59
2021/03/31 09:42:07;;;;;;;21.95;10.80;;;;;;;;;;5062449;28;20344;-59
2021/03/31 09:44:34;;;;;;;25.45;11.27;;;;;;;;;;5064975;28;20127;-59
2021/03/31 09:47:00;;;;;;;26.35;10.88;;;;;;;;;;5063061;28;20049;-59
2021/03/31 09:49:27;;;;;;;20.70;10.27;;;;;;;;;;5063416;28;20576;-59
2021/03/31 09:51:54;;;;;;;21.70;10.85;;;;;;;;;;5062634;28;20047;-59
2021/03/31 09:54:24;;;;;;;31.70;11.88;;;;;;;;;;5062608;28;20123;-59
2021/03/31 09:56:51;;;;;;;31.80;11.05;;;;;;;;;;5063539;28;20040;-59
2021/03/31 09:59:17;;;;;;;26.40;11.50;;;;;;;;;;5061285;28;20071;-59
2021/03/31 10:01:43;;;;;;;25.17;11.30;;;;;;;;;;5065514;28;20098;-59
2021/03/31 10:04:10;;;;;;;25.48;11.75;;;;;;;;;;5063797;28;20451;-59
2021/03/31 10:07:06;;;;;;;27.48;12.10;;;;;;;;;;5063768;28;20119;-59
2021/03/31 10:09:40;;;;;;;28.35;12.48;;;;;;;;;;5064170;28;20048;-60
2021/03/31 10:12:07;;;;;;;26.58;11.77;;;;;;;;;;5062126;28;20715;-59
2021/03/31 10:14:42;;;;;;;25.55;11.23;;;;;;;;;;5063277;28;20144;-60
2021/03/31 10:17:09;;;;;;;24.00;12.38;;;;;;;;;;5061191;28;20426;-59
2021/03/31 10:19:35;;;;;;;;;;;;;;;;;;5066084;28;20566;-59
2021/03/31 10:22:04;;;;;;;25.65;12.45;;;;;;;;;;5062651;28;19928;-59
2021/03/31 10:24:51;;;;;;;27.20;12.55;;;;;;;;;;5062586;28;20404;-59
2021/03/31 10:27:39;;;;;;;26.17;11.93;;;;;;;;;;5064187;28;20106;-60
2021/03/31 10:30:26;;;;;;;35.53;12.75;;;;;;;;;;5065992;28;20048;-59
2021/03/31 10:33:13;;;;;;;28.13;11.88;;;;;;;;;;5063288;28;20097;-60
2021/03/31 10:35:48;;;;;;;24.50;11.30;;;;;;;;;;5063835;28;20045;-59
2021/03/31 10:38:35;;;;;;;23.38;11.45;;;;;;;;;;5063181;28;20048;-60
2021/03/31 10:41:36;;;;;;;29.20;12.15;;;;;;;;;;5062526;28;20388;-60
2021/03/31 10:49:32;;;;;;;22.45;11.55;;;;;;;;;;5063959;28;20041;-60
2021/03/31 10:52:04;;;;;;;26.83;12.13;;;;;;;;;;5066308;28;20041;-60
2021/03/31 10:54:31;;;;;;;24.92;12.07;;;;;;;;;;5063496;28;20071;-60
2021/03/31 10:57:09;;;;;;;23.23;11.75;;;;;;;;;;5061903;28;20045;-60
2021/03/31 10:59:35;;;;;;;24.40;11.82;;;;;;;;;;5063432;28;20058;-60
2021/03/31 11:02:02;;;;;;;20.80;11.13;;;;;;;;;;5064402;28;20054;-60
2021/03/31 11:04:28;;;;;;;32.40;11.95;;;;;;;;;;5062278;28;20095;-60
2021/03/31 11:06:55;;;;;;;23.40;11.75;;;;;;;;;;5062542;28;20098;-60
2021/03/31 11:09:21;;;;;;;22.38;10.93;;;;;;;;;;5060532;28;20508;-60
2021/03/31 11:11:48;;;;;;;25.63;12.52;;;;;;;;;;5062716;28;20086;-60
2021/03/31 11:14:17;;;;;;;26.80;11.60;;;;;;;;;;5062216;28;20519;-60
2021/03/31 11:16:53;;;;;;;20.40;10.77;;;;;;;;;;5060779;28;20186;-60
2021/03/31 11:27:28;;;;;;;25.35;11.38;;;;;;;;;;5061552;28;20102;-60
2021/03/31 11:30:02;;;;;;;22.58;10.48;;;;;;;;;;5064114;28;20405;-60
2021/03/31 11:32:28;;;;;;;24.27;9.95;;;;;;;;;;5060059;28;20032;-60
2021/03/31 11:34:54;;;;;;;28.52;10.68;;;;;;;;;;5060872;28;20432;-60
2021/03/31 11:37:21;;;;;;;25.67;11.35;;;;;;;;;;5060798;28;20037;-60
2021/03/31 11:39:47;;;;;;;20.27;10.65;;;;;;;;;;5059388;28;20445;-60
2021/03/31 11:42:13;;;;;;;22.65;12.20;;;;;;;;;;5063805;28;20045;-60
2021/03/31 11:44:39;;;;;;;23.05;10.98;;;;;;;;;;5062900;28;20128;-60
2021/03/31 11:47:05;;;;;;;23.05;10.75;;;;;;;;;;5063152;28;20040;-60
2021/03/31 11:49:32;;;;;;;23.40;11.57;;;;;;;;;;5062369;28;20454;-60
2021/03/31 11:51:58;;;;;;;20.20;9.73;;;;;;;;;;5062809;28;20064;-60
2021/03/31 11:54:24;;;;;;;18.10;9.82;;;;;;;;;;5063897;28;20512;-60
2021/03/31 11:56:50;;;;;;;23.65;10.52;;;;;;;;;;5064264;28;20040;-60
2021/03/31 11:59:16;;;;;;;17.65;9.48;;;;;;;;;;5066205;28;20076;-60
2021/03/31 12:01:43;;;;;;;24.83;10.95;;;;;;;;;;5064645;28;20131;-60
2021/03/31 12:04:10;;;;;;;17.83;9.50;;;;;;;;;;5067733;28;20045;-60
2021/03/31 12:06:37;;;;;;;23.50;9.52;;;;;;;;;;5065338;28;20045;-60
2021/03/31 12:09:06;;;;;;;27.38;9.40;;;;;;;;;;5066965;28;20041;-60
2021/03/31 12:11:33;;;;;;;21.55;9.38;;;;;;;;;;5066212;28;20558;-60
2021/03/31 12:13:59;;;;;;;21.48;9.18;;;;;;;;;;5065105;28;20075;-60
2021/03/31 12:16:25;;;;;;;22.52;9.85;;;;;;;;;;5065296;28;20507;-60
2021/03/31 12:18:51;;;;;;;23.98;8.73;;;;;;;;;;5066128;28;20041;-60
2021/03/31 12:21:17;;;;;;;19.95;9.30;;;;;;;;;;5066095;28;20057;-60
2021/03/31 12:23:43;;;;;;;22.17;8.63;;;;;;;;;;5060616;28;20068;-60
2021/03/31 12:26:10;;;;;;;20.70;11.02;;;;;;;;;;5065143;28;20044;-60
2021/03/31 12:28:37;;;;;;;18.93;10.13;;;;;;;;;;5066451;28;20147;-60
2021/03/31 12:31:07;;;;;;;;;;;;;;;;;;5064339;28;20314;-60
2021/03/31 12:33:36;;;;;;;22.10;10.38;;;;;;;;;;5066172;28;20339;-60
2021/03/31 12:36:04;;;;;;;20.45;10.23;;;;;;;;;;5064893;28;20438;-60
2021/03/31 12:38:30;;;;;;;26.20;10.25;;;;;;;;;;5048221;28;20095;-60
2021/03/31 12:41:00;;;;;;;23.95;10.00;;;;;;;;;;5064845;28;20451;-60
2021/03/31 12:43:27;;;;;;;19.40;10.38;;;;;;;;;;5066306;28;20050;-60
2021/03/31 12:45:53;;;;;;;25.80;10.88;;;;;;;;;;5065583;28;20093;-60
2021/03/31 12:48:19;;;;;;;22.38;11.23;;;;;;;;;;5065210;28;20507;-60
2021/03/31 12:50:46;;;;;;;22.88;10.85;;;;;;;;;;5066737;28;20131;-60
2021/03/31 12:53:23;;;;;;;23.13;11.88;;;;;;;;;;5043447;28;20057;-60
2021/03/31 12:55:52;;;;;;;;;;;;;;;;;;5064636;28;20080;-61
2021/03/31 12:58:20;;;;;;;24.98;10.63;;;;;;;;;;5065176;28;19925;-60
2021/03/31 13:00:47;;;;;;;25.75;11.13;;;;;;;;;;5063081;28;20071;-60
2021/03/31 13:03:33;;;;;;;25.83;11.93;;;;;;;;;;5065912;28;20041;-60
2021/03/31 13:06:23;;;;;;;26.55;12.32;;;;;;;;;;5043770;28;20107;-60
2021/03/31 13:08:53;;;;;;;20.63;12.25;;;;;;;;;;5064408;28;20140;-60
2021/03/31 13:11:43;;;;;;;25.15;12.93;;;;;;;;;;5064395;28;20045;-60
2021/03/31 13:25:25;;;;;;;23.73;13.07;;;;;;;;;;5061392;28;20045;-60
2021/03/31 13:28:16;;;;;;;25.55;13.35;;;;;;;;;;5062417;28;20053;-61
2021/03/31 13:31:09;;;;;;;28.88;13.43;;;;;;;;;;5060653;28;20152;-60
2021/03/31 13:33:39;;;;;;;27.17;12.55;;;;;;;;;;5064408;28;20048;-60
2021/03/31 13:36:18;;;;;;;21.42;12.48;;;;;;;;;;5061143;28;20095;-60
2021/03/31 13:41:14;;;;;;;30.63;14.82;;;;;;;;;;5062006;28;20128;-60
2021/03/31 13:43:40;;;;;;;26.77;14.27;;;;;;;;;;5064884;28;20052;-60
2021/03/31 13:46:07;;;;;;;27.75;14.10;;;;;;;;;;5064465;28;20047;-60
2021/03/31 13:51:00;;;;;;;27.02;13.98;;;;;;;;;;5065235;28;20036;-60
2021/03/31 13:53:41;;;;;;;31.75;14.88;;;;;;;;;;5063441;28;20059;-60
2021/03/31 13:59:09;;;;;;;28.15;13.75;;;;;;;;;;5048384;28;20121;-60
2021/03/31 14:01:35;;;;;;;35.85;14.52;;;;;;;;;;5063102;28;20036;-60
2021/03/31 14:04:21;;;;;;;24.40;14.15;;;;;;;;;;5062660;28;20122;-60
2021/03/31 14:07:08;;;;;;;28.77;12.98;;;;;;;;;;5062442;28;20036;-60
2021/03/31 14:09:55;;;;;;;32.10;14.50;;;;;;;;;;5065194;28;20039;-60
2021/03/31 14:12:41;;;;;;;28.30;14.65;;;;;;;;;;5063806;28;20040;-61
2021/03/31 14:15:28;;;;;;;29.10;13.70;;;;;;;;;;5061010;28;20115;-60
2021/03/31 14:18:14;;;;;;;34.28;14.02;;;;;;;;;;5062865;28;20041;-60
2021/03/31 14:20:41;;;;;;;34.47;15.25;;;;;;;;;;5045258;28;20131;-60
2021/03/31 14:23:07;;;;;;;29.90;15.05;;;;;;;;;;5062549;28;20064;-60
2021/03/31 14:25:33;;;;;;;28.98;14.63;;;;;;;;;;5062207;28;20045;-60
2021/03/31 14:28:00;;;;;;;30.13;13.60;;;;;;;;;;5064278;28;20056;-60
2021/03/31 14:30:45;;;;;;;30.42;13.63;;;;;;;;;;5063266;28;20105;-60
2021/03/31 14:33:32;;;;;;;28.90;14.55;;;;;;;;;;5064979;28;20033;-60
2021/03/31 14:36:19;;;;;;;29.95;15.00;;;;;;;;;;5064415;28;20043;-60
2021/03/31 14:39:07;;;;;;;26.65;13.63;;;;;;;;;;5062941;28;20119;-60
2021/03/31 14:41:53;;;;;;;32.78;13.77;;;;;;;;;;5063562;28;20071;-60
2021/03/31 14:44:20;;;;;;;33.85;15.00;;;;;;;;;;5064013;28;20094;-60
2021/03/31 14:46:46;;;;;;;37.38;15.52;;;;;;;;;;5061517;28;20160;-60
2021/03/31 14:49:33;;;;;;;36.53;14.38;;;;;;;;;;5059509;28;20044;-60
2021/03/31 15:00:35;;;;;;;33.40;17.45;;;;;;;;;;5065225;28;20048;-60
2021/03/31 15:03:02;;;;;;;39.97;17.58;;;;;;;;;;5063368;28;20071;-60
2021/03/31 15:05:29;;;;;;;40.13;17.67;;;;;;;;;;5062584;28;20036;-60
2021/03/31 15:07:55;;;;;;;37.75;17.50;;;;;;;;;;5062017;28;20052;-60
2021/03/31 15:10:21;;;;;;;34.70;17.75;;;;;;;;;;5061910;28;20046;-60
2021/03/31 15:12:48;;;;;;;36.92;17.48;;;;;;;;;;5061004;28;20041;-60
2021/03/31 15:15:34;;;;;;;43.53;18.83;;;;;;;;;;5064149;28;20055;-60
2021/03/31 15:18:20;;;;;;;37.10;17.75;;;;;;;;;;5060415;28;20039;-60